Thunder radar more information blitzortung!


Radar de pluja more information rain snow radar


Visita la nostra xarxa de llocs de meteo:

Template documentation
and downloads

And another site



No particular awareness of the weather is required.    There are no Weather-warnings

Pagina Historial Weather Underground text

Diari Resum Setembre 23, 2017 Unitats:  Mètric    Imperial   Tant
« Previous Dia
SegĂźent Dia »
Diari Setmana Mensual Anual Personalitzada
  Maxima: Minima: Media:
Temperatura: 26.6 °C 14.6 °C 22.1 °C
Punt de rosada: 17.1 °C 13.0 °C 15.7 °C
Humitat: 90 % 53 % 68 %
Wind Speed: 20.4 km/h 0.0 km/h 5.3 km/h
RĂ fegues de vent: 20.4 km/h - -
Vent:- - SSW
Pression baro: 1022.9 hPa 1018.8 hPa -
Precipitacions: 0.0 mm    
Historical Graphs
 
 
Dades de taula per Setembre 23, 2017
Temps Temperatura Punt de rosada Pression baro Vent Wind Speed RĂ fegues de vent Humitat Rainfall Rate (Hourly)
00:03 17.1 °C 14.0 °C 1022.9 hPa Calm     82 % 0.0 mm
00:08 17.2 °C 14.1 °C 1022.9 hPa Calm     82 % 0.0 mm
04:10 14.6 °C 13.0 °C 1022.9 hPa WNW 1.6 km/h 3.2 km/h 90 % 0.0 mm
04:20 14.8 °C 13.2 °C 1022.9 hPa WNW 3.2 km/h 3.2 km/h 90 % 0.0 mm
04:30 15.0 °C 13.4 °C 1022.9 hPa Calm   3.2 km/h 90 % 0.0 mm
04:40 15.4 °C 13.8 °C 1022.9 hPa Calm   1.6 km/h 90 % 0.0 mm
04:50 15.9 °C 14.3 °C 1022.9 hPa Calm   1.6 km/h 90 % 0.0 mm
05:00 16.5 °C 14.5 °C 1022.9 hPa SSE 1.6 km/h 4.8 km/h 88 % 0.0 mm
05:10 17.4 °C 14.8 °C 1022.9 hPa Calm   4.8 km/h 85 % 0.0 mm
05:20 18.0 °C 14.9 °C 1022.9 hPa NE 1.6 km/h 3.2 km/h 82 % 0.0 mm
05:30 19.2 °C 15.4 °C 1022.9 hPa Calm   3.2 km/h 79 % 0.0 mm
05:40 19.3 °C 15.2 °C 1022.9 hPa NW 1.6 km/h 3.2 km/h 77 % 0.0 mm
05:50 19.4 °C 15.1 °C 1022.9 hPa NNW 1.6 km/h 3.2 km/h 76 % 0.0 mm
06:00 19.7 °C 15.2 °C 1022.9 hPa NNE 1.6 km/h 6.4 km/h 75 % 0.0 mm
06:10 19.9 °C 15.3 °C 1022.9 hPa NE 4.8 km/h 4.8 km/h 75 % 0.0 mm
06:20 20.1 °C 15.1 °C 1022.9 hPa NE 4.8 km/h 4.8 km/h 73 % 0.0 mm
06:30 20.1 °C 14.9 °C 1022.9 hPa NE 3.2 km/h 6.4 km/h 72 % 0.0 mm
06:40 20.5 °C 15.3 °C 1022.9 hPa NNE 3.2 km/h 6.4 km/h 72 % 0.0 mm
06:50 20.5 °C 14.8 °C 1022.9 hPa NE 4.8 km/h 6.4 km/h 70 % 0.0 mm
07:00 21.0 °C 15.3 °C 1022.9 hPa NE 4.8 km/h 4.8 km/h 70 % 0.0 mm
08:00 23.1 °C 15.9 °C 1021.9 hPa East 3.2 km/h 4.8 km/h 64 % 0.0 mm
12:09 21.7 °C 15.8 °C 1022.9 hPa West 3.2 km/h 3.5 km/h 69 % 0.0 mm
12:14 21.5 °C 15.3 °C 1022.9 hPa NNE 3.7 km/h 3.7 km/h 68 % 0.0 mm
12:19 21.6 °C 15.4 °C 1022.9 hPa NNE 2.6 km/h 2.6 km/h 68 % 0.0 mm
12:24 22.1 °C 15.4 °C 1022.9 hPa NE 1.9 km/h 1.9 km/h 66 % 0.0 mm
12:29 22.4 °C 15.5 °C 1022.9 hPa SE 4.7 km/h 4.7 km/h 65 % 0.0 mm
12:34 22.8 °C 15.4 °C 1021.9 hPa SSE 3.7 km/h 3.7 km/h 63 % 0.0 mm
12:39 22.5 °C 15.1 °C 1021.9 hPa East 7.4 km/h 7.4 km/h 63 % 0.0 mm
12:44 23.1 °C 16.2 °C 1021.9 hPa ESE 3.7 km/h 3.7 km/h 65 % 0.0 mm
13:07 24.4 °C 16.7 °C 1021.9 hPa SW 7.4 km/h 7.4 km/h 62 % 0.0 mm
13:12 24.7 °C 16.4 °C 1021.9 hPa South 7.4 km/h 7.4 km/h 60 % 0.0 mm
13:17 25.2 °C 16.6 °C 1020.9 hPa SW 7.9 km/h 7.9 km/h 59 % 0.0 mm
13:22 25.1 °C 16.5 °C 1020.9 hPa SSW 7.4 km/h 7.4 km/h 59 % 0.0 mm
13:27 25.3 °C 16.4 °C 1020.9 hPa SSE 3.9 km/h 3.9 km/h 58 % 0.0 mm
13:32 24.9 °C 16.1 °C 1021.9 hPa South 5.6 km/h 5.6 km/h 58 % 0.0 mm
13:37 25.4 °C 16.6 °C 1021.9 hPa SSE 3.5 km/h 3.5 km/h 58 % 0.0 mm
13:42 25.6 °C 16.7 °C 1021.9 hPa WNW 5.6 km/h 5.6 km/h 58 % 0.0 mm
13:47 25.6 °C 16.7 °C 1021.9 hPa SW 7.4 km/h 7.4 km/h 58 % 0.0 mm
13:52 25.6 °C 16.4 °C 1021.9 hPa SW 9.3 km/h 9.3 km/h 57 % 0.0 mm
13:57 25.5 °C 15.2 °C 1021.9 hPa South 11.1 km/h 11.1 km/h 53 % 0.0 mm
14:02 25.7 °C 16.0 °C 1020.9 hPa South 3.7 km/h 3.7 km/h 55 % 0.0 mm
14:07 26.3 °C 16.8 °C 1020.9 hPa SSW 7.4 km/h 7.4 km/h 56 % 0.0 mm
14:12 26.1 °C 16.3 °C 1020.9 hPa WSW 7.4 km/h 7.4 km/h 55 % 0.0 mm
14:17 26.0 °C 16.3 °C 1020.9 hPa WSW 5.0 km/h 5.0 km/h 55 % 0.0 mm
14:22 25.7 °C 15.7 °C 1020.9 hPa SSE 1.9 km/h   54 % 0.0 mm
14:27 25.6 °C 15.3 °C 1020.9 hPa NNE 9.3 km/h 9.3 km/h 53 % 0.0 mm
14:33 24.7 °C 15.1 °C 1020.9 hPa SE 7.9 km/h 7.9 km/h 55 % 0.0 mm
14:38 24.3 °C 14.9 °C 1020.9 hPa ESE 13.0 km/h 13.0 km/h 56 % 0.0 mm
14:43 24.0 °C 14.9 °C 1020.9 hPa SSE 11.4 km/h 11.4 km/h 57 % 0.0 mm
14:48 24.3 °C 15.5 °C 1020.9 hPa East 7.4 km/h 7.4 km/h 58 % 0.0 mm
14:58 23.9 °C 15.9 °C 1020.9 hPa East 16.7 km/h 16.7 km/h 61 % 0.0 mm
15:03 23.8 °C 16.1 °C 1019.9 hPa SSE 9.3 km/h 9.3 km/h 62 % 0.0 mm
15:08 24.3 °C 16.3 °C 1019.9 hPa SSW 7.4 km/h 7.4 km/h 61 % 0.0 mm
15:13 24.6 °C 16.3 °C 1019.9 hPa ESE 3.7 km/h 3.7 km/h 60 % 0.0 mm
15:18 25.3 °C 16.7 °C 1019.9 hPa SW 11.1 km/h 11.1 km/h 59 % 0.0 mm
15:23 25.8 °C 16.6 °C 1019.9 hPa WSW 5.6 km/h 5.6 km/h 57 % 0.0 mm
15:28 26.1 °C 16.9 °C 1019.9 hPa SSW 9.3 km/h 9.3 km/h 57 % 0.0 mm
15:33 26.6 °C 17.1 °C 1019.9 hPa SSW 9.3 km/h 9.5 km/h 56 % 0.0 mm
15:38 26.5 °C 16.7 °C 1019.9 hPa WSW 20.4 km/h 20.4 km/h 55 % 0.0 mm
15:43 26.1 °C 16.3 °C 1019.9 hPa West 11.1 km/h 11.1 km/h 55 % 0.0 mm
15:48 26.5 °C 16.7 °C 1019.9 hPa SW 11.4 km/h 11.4 km/h 55 % 0.0 mm
15:49 26.5 °C 16.7 °C 1019.9 hPa South 11.1 km/h 11.1 km/h 55 % 0.0 mm
15:54 26.1 °C 16.3 °C 1019.9 hPa SW 11.1 km/h 11.1 km/h 55 % 0.0 mm
15:59 25.1 °C 15.4 °C 1019.9 hPa SSW 16.7 km/h 16.7 km/h 55 % 0.0 mm
16:04 25.0 °C 15.3 °C 1019.9 hPa SW 14.8 km/h 14.8 km/h 55 % 0.0 mm
16:09 25.4 °C 16.0 °C 1019.9 hPa WSW 10.0 km/h 10.0 km/h 56 % 0.0 mm
16:14 25.3 °C 15.9 °C 1019.9 hPa SW 7.4 km/h 7.4 km/h 56 % 0.0 mm
16:19 25.4 °C 16.0 °C 1019.9 hPa South 7.4 km/h 7.4 km/h 56 % 0.0 mm
16:24 25.1 °C 15.7 °C 1019.9 hPa SSW 13.0 km/h 13.0 km/h 56 % 0.0 mm
16:29 24.9 °C 15.8 °C 1019.9 hPa WSW 11.1 km/h 11.1 km/h 57 % 0.0 mm
16:34 25.0 °C 15.6 °C 1019.9 hPa SW 10.3 km/h 10.3 km/h 56 % 0.0 mm
16:39 24.3 °C 15.2 °C 1019.9 hPa SSW 13.0 km/h 13.0 km/h 57 % 0.0 mm
16:44 24.6 °C 15.8 °C 1019.9 hPa SW 3.7 km/h 3.7 km/h 58 % 0.0 mm
16:49 24.8 °C 16.0 °C 1019.9 hPa WSW 3.7 km/h 3.7 km/h 58 % 0.0 mm
16:54 24.9 °C 16.1 °C 1019.9 hPa SSW 9.3 km/h 9.3 km/h 58 % 0.0 mm
16:59 24.7 °C 15.9 °C 1019.9 hPa SW 11.9 km/h 11.9 km/h 58 % 0.0 mm
17:04 24.8 °C 16.0 °C 1019.9 hPa SW 3.7 km/h 3.7 km/h 58 % 0.0 mm
17:09 24.8 °C 16.0 °C 1019.9 hPa ESE 11.1 km/h 11.1 km/h 58 % 0.0 mm
17:14 24.6 °C 15.8 °C 1019.9 hPa SSW 13.0 km/h 13.0 km/h 58 % 0.0 mm
17:19 24.7 °C 15.9 °C 1019.9 hPa South 9.3 km/h 9.3 km/h 58 % 0.0 mm
17:24 24.8 °C 16.0 °C 1019.9 hPa SSW 5.6 km/h 5.6 km/h 58 % 0.0 mm
17:29 24.6 °C 16.1 °C 1019.9 hPa SSW 7.4 km/h 7.4 km/h 59 % 0.0 mm
17:34 24.5 °C 15.9 °C 1019.9 hPa SSW 11.4 km/h 11.4 km/h 59 % 0.0 mm
17:39 24.2 °C 15.9 °C 1019.9 hPa SW 7.4 km/h 7.4 km/h 60 % 0.0 mm
17:44 24.3 °C 16.1 °C 1019.9 hPa WSW 7.4 km/h 7.4 km/h 60 % 0.0 mm
17:49 24.3 °C 15.8 °C 1019.9 hPa West 6.1 km/h 6.1 km/h 59 % 0.0 mm
17:54 24.3 °C 16.1 °C 1019.9 hPa SW 9.3 km/h 9.3 km/h 60 % 0.0 mm
17:59 24.3 °C 16.1 °C 1019.9 hPa SW 11.1 km/h 11.1 km/h 60 % 0.0 mm
18:04 24.2 °C 16.2 °C 1019.9 hPa South 9.3 km/h 9.3 km/h 61 % 0.0 mm
18:09 23.9 °C 16.2 °C 1019.9 hPa South 7.4 km/h 7.4 km/h 62 % 0.0 mm
18:14 23.7 °C 16.2 °C 1019.9 hPa SSE 3.2 km/h 3.2 km/h 63 % 0.0 mm
18:19 23.7 °C 16.2 °C 1019.9 hPa WNW 9.7 km/h 9.7 km/h 63 % 0.0 mm
18:24 23.5 °C 16.1 °C 1019.9 hPa SW 4.7 km/h 4.7 km/h 63 % 0.0 mm
18:29 23.2 °C 15.8 °C 1019.9 hPa WSW 7.4 km/h 7.4 km/h 63 % 0.0 mm
18:34 22.9 °C 15.7 °C 1019.9 hPa WSW 9.0 km/h 9.0 km/h 64 % 0.0 mm
18:39 22.8 °C 15.6 °C 1019.9 hPa WNW 7.4 km/h 7.4 km/h 64 % 0.0 mm
18:44 22.8 °C 15.9 °C 1019.9 hPa SW 9.3 km/h 9.3 km/h 65 % 0.0 mm
18:49 22.8 °C 15.9 °C 1019.9 hPa WSW 5.8 km/h 5.8 km/h 65 % 0.0 mm
18:54 22.7 °C 15.8 °C 1019.9 hPa SW 3.2 km/h   65 % 0.0 mm
18:59 22.7 °C 15.8 °C 1019.9 hPa SW 7.4 km/h 7.4 km/h 65 % 0.0 mm
19:04 22.6 °C 15.9 °C 1018.8 hPa SSW 3.7 km/h 3.7 km/h 66 % 0.0 mm
19:09 22.6 °C 15.9 °C 1018.8 hPa SW 3.9 km/h 3.9 km/h 66 % 0.0 mm
19:14 22.5 °C 15.8 °C 1018.8 hPa SW 5.0 km/h 5.0 km/h 66 % 0.0 mm
19:19 22.3 °C 15.7 °C 1020.9 hPa SW 4.2 km/h 4.2 km/h 66 % 0.0 mm
19:24 22.2 °C 15.6 °C 1020.9 hPa WSW 5.0 km/h 5.0 km/h 66 % 0.0 mm
19:29 22.1 °C 15.4 °C 1020.9 hPa West 5.6 km/h 5.6 km/h 66 % 0.0 mm
19:34 22.0 °C 15.6 °C 1019.9 hPa SSW 3.7 km/h 3.7 km/h 67 % 0.0 mm
19:39 21.8 °C 15.6 °C 1019.9 hPa WSW 4.2 km/h 4.2 km/h 68 % 0.0 mm
19:44 21.7 °C 15.8 °C 1019.9 hPa SW 3.9 km/h   69 % 0.0 mm
19:49 21.5 °C 15.6 °C 1019.9 hPa SW 5.6 km/h 5.6 km/h 69 % 0.0 mm
19:54 21.4 °C 15.5 °C 1019.9 hPa SW 3.7 km/h 3.7 km/h 69 % 0.0 mm
19:59 21.3 °C 15.6 °C 1019.9 hPa WSW 1.9 km/h   70 % 0.0 mm
20:04 21.3 °C 15.6 °C 1019.9 hPa WSW 1.9 km/h   70 % 0.0 mm
20:09 21.2 °C 15.5 °C 1019.9 hPa SW 5.6 km/h 5.6 km/h 70 % 0.0 mm
20:14 21.2 °C 15.5 °C 1019.9 hPa WSW 3.7 km/h 3.7 km/h 70 % 0.0 mm
20:19 21.1 °C 15.6 °C 1019.9 hPa WSW 3.7 km/h 3.7 km/h 71 % 0.0 mm
20:24 21.0 °C 15.6 °C 1019.9 hPa SW 3.7 km/h 3.7 km/h 71 % 0.0 mm
20:29 20.9 °C 15.4 °C 1019.9 hPa SW 3.7 km/h 3.7 km/h 71 % 0.0 mm
20:34 20.8 °C 15.6 °C 1019.9 hPa WSW 3.7 km/h 3.7 km/h 72 % 0.0 mm
20:39 20.7 °C 15.4 °C 1019.9 hPa SW 5.0 km/h 5.0 km/h 72 % 0.0 mm
20:44 20.7 °C 15.7 °C 1019.9 hPa WSW 3.2 km/h 3.2 km/h 73 % 0.0 mm
20:49 20.6 °C 15.6 °C 1019.9 hPa WSW 3.7 km/h 3.7 km/h 73 % 0.0 mm
20:54 20.5 °C 15.5 °C 1019.9 hPa WSW 3.7 km/h 3.7 km/h 73 % 0.0 mm
20:59 20.5 °C 15.5 °C 1019.9 hPa WSW 3.7 km/h 3.7 km/h 73 % 0.0 mm
21:04 20.4 °C 15.4 °C 1020.9 hPa WSW 3.7 km/h 3.7 km/h 73 % 0.0 mm
21:09 20.4 °C 15.6 °C 1020.9 hPa SW 3.7 km/h 3.7 km/h 74 % 0.0 mm
21:14 20.3 °C 15.5 °C 1020.9 hPa WSW 3.7 km/h 3.7 km/h 74 % 0.0 mm
21:19 20.2 °C 15.6 °C 1020.9 hPa SW 3.7 km/h 3.7 km/h 75 % 0.0 mm
21:24 20.1 °C 15.6 °C 1020.9 hPa SW 1.9 km/h 1.9 km/h 75 % 0.0 mm
21:29 20.1 °C 15.6 °C 1020.9 hPa SW 3.7 km/h 3.7 km/h 75 % 0.0 mm
21:34 19.9 °C 15.6 °C 1020.9 hPa WSW 3.7 km/h 3.7 km/h 76 % 0.0 mm
21:39 19.8 °C 15.4 °C 1020.9 hPa SW 3.7 km/h 3.9 km/h 76 % 0.0 mm
21:44 19.8 °C 15.4 °C 1020.9 hPa SW 3.7 km/h 3.7 km/h 76 % 0.0 mm
21:49 19.7 °C 15.6 °C 1021.9 hPa SW 4.2 km/h 4.2 km/h 77 % 0.0 mm
21:54 19.6 °C 15.4 °C 1021.9 hPa SW 3.7 km/h 3.7 km/h 77 % 0.0 mm
21:59 19.6 °C 15.4 °C 1021.9 hPa WSW 3.7 km/h 3.7 km/h 77 % 0.0 mm
22:04 19.5 °C 15.3 °C 1021.9 hPa SW 3.7 km/h 3.7 km/h 77 % 0.0 mm
22:09 19.5 °C 15.3 °C 1021.9 hPa WSW 3.7 km/h 3.7 km/h 77 % 0.0 mm
22:14 19.4 °C 15.4 °C 1021.9 hPa WSW 2.6 km/h 2.6 km/h 78 % 0.0 mm
22:19 19.4 °C 15.4 °C 1021.9 hPa WSW 1.9 km/h 1.9 km/h 78 % 0.0 mm
22:24 19.3 °C 15.6 °C 1021.9 hPa WSW 1.9 km/h   79 % 0.0 mm
22:29 19.3 °C 15.6 °C 1021.9 hPa Calm     79 % 0.0 mm
22:34 19.2 °C 15.4 °C 1021.9 hPa WSW 1.4 km/h   79 % 0.0 mm
22:39 19.3 °C 15.8 °C 1021.9 hPa WSW 1.9 km/h   80 % 0.0 mm
22:44 19.2 °C 15.7 °C 1021.9 hPa Calm     80 % 0.0 mm
22:49 19.2 °C 15.7 °C 1021.9 hPa Calm     80 % 0.0 mm
22:54 19.1 °C 15.8 °C 1021.9 hPa Calm     81 % 0.0 mm
22:59 19.1 °C 15.8 °C 1021.9 hPa Calm     81 % 0.0 mm
23:04 19.1 °C 15.8 °C 1021.9 hPa Calm     81 % 0.0 mm
23:09 19.0 °C 15.7 °C 1021.9 hPa Calm     81 % 0.0 mm
23:14 19.0 °C 15.7 °C 1021.9 hPa Calm     81 % 0.0 mm
23:19 19.0 °C 15.8 °C 1020.9 hPa Calm     82 % 0.0 mm
23:24 19.0 °C 15.8 °C 1020.9 hPa Calm     82 % 0.0 mm
23:29 18.8 °C 15.8 °C 1020.9 hPa Calm     83 % 0.0 mm
23:35 18.8 °C 15.8 °C 1021.9 hPa Calm     83 % 0.0 mm
23:39 18.7 °C 15.8 °C 1021.9 hPa Calm     83 % 0.0 mm
23:45 18.7 °C 15.8 °C 1021.9 hPa Calm     83 % 0.0 mm
23:50 18.6 °C 15.7 °C 1021.9 hPa WSW 1.4 km/h   83 % 0.0 mm
23:55 18.6 °C 15.8 °C 1021.9 hPa Calm     84 % 0.0 mm
Meteo Sesrovires
Elogis d' Weather Underground - 3.25 mb

Guio original per  Jim McMurry - jmcmurry@mwt.net Adaptat per a la plantilla per  Wim van der Kuil - Leuven-Template.eu

Trobareu la nostra informacio del temps tambe a:

Weather Underground

AWEKAS